Time;durP1;ratioP1;P1;durP2;ratioP2;P2;SDS_P1;SDS_P2;PMS_P1;PMS_P2;Temp;Humidity;BMP_temperature;BMP_pressure;BME280_temperature;BME280_humidity;BME280_pressure;Samples;Min_cycle;Max_cycle;Signal;HPM_P1;HPM_P2
2024/02/17 00:00:43;;;;;;;3.45;2.10;;;;;;;8.21;100.00;102516.56;5052196;28;20024;-78
2024/02/17 00:03:12;;;;;;;8.07;2.17;;;;;;;8.24;100.00;102517.28;5052017;28;20037;-78
2024/02/17 00:05:39;;;;;;;7.45;1.92;;;;;;;8.26;100.00;102517.19;5052006;28;20041;-78
2024/02/17 00:08:04;;;;;;;7.28;2.00;;;;;;;8.31;100.00;102533.72;5051912;28;20451;-78
2024/02/17 00:10:30;;;;;;;6.53;2.05;;;;;;;8.37;100.00;102525.41;5051974;28;20102;-78
2024/02/17 00:12:55;;;;;;;9.48;2.05;;;;;;;8.39;100.00;102530.63;5051797;28;20049;-78
2024/02/17 00:15:20;;;;;;;5.80;1.80;;;;;;;8.40;100.00;102522.59;5052118;28;20033;-78
2024/02/17 00:17:46;;;;;;;9.30;2.17;;;;;;;8.46;100.00;102538.22;5051910;28;20494;-78
2024/02/17 00:20:12;;;;;;;7.22;2.95;;;;;;;8.49;100.00;102533.69;5051695;28;20033;-78
2024/02/17 00:22:38;;;;;;;8.90;1.80;;;;;;;8.53;100.00;102538.75;5051899;28;20470;-77
2024/02/17 00:25:04;;;;;;;4.00;1.70;;;;;;;8.58;100.00;102538.47;5052148;28;20033;-77
2024/02/17 00:27:29;;;;;;;7.45;2.65;;;;;;;8.63;100.00;102539.94;5051467;28;20116;-78
2024/02/17 00:29:54;;;;;;;6.68;2.13;;;;;;;8.67;100.00;102547.75;5051587;28;20025;-78
2024/02/17 00:32:20;;;;;;;9.07;3.28;;;;;;;8.68;100.00;102546.81;5051438;28;20475;-79
2024/02/17 00:34:45;;;;;;;5.40;1.98;;;;;;;8.67;100.00;102545.94;5049704;28;20125;-78
2024/02/17 00:37:10;;;;;;;7.43;2.05;;;;;;;8.65;100.00;102555.78;5051541;28;20119;-79
2024/02/17 00:39:36;;;;;;;7.13;2.13;;;;;;;8.68;100.00;102557.41;5050164;28;20049;-78
2024/02/17 00:42:01;;;;;;;9.98;2.35;;;;;;;8.66;100.00;102554.84;5051402;28;20420;-78
2024/02/17 00:44:27;;;;;;;6.30;2.47;;;;;;;8.65;100.00;102555.78;5051094;28;20347;-78
2024/02/17 00:46:52;;;;;;;10.73;2.33;;;;;;;8.65;100.00;102563.75;5051514;28;20037;-79
2024/02/17 00:49:18;;;;;;;9.15;2.30;;;;;;;8.59;100.00;102556.97;5050996;28;20037;-78
2024/02/17 00:51:43;;;;;;;14.60;2.40;;;;;;;8.55;100.00;102567.84;5050555;28;20480;-77
2024/02/17 00:54:08;;;;;;;7.70;2.17;;;;;;;8.46;100.00;102570.06;5051092;28;20348;-78
2024/02/17 00:56:34;;;;;;;12.45;2.58;;;;;;;8.40;100.00;102567.69;5051213;28;20044;-78
2024/02/17 00:58:59;;;;;;;7.95;2.60;;;;;;;8.37;100.00;102570.50;5050900;28;20032;-77
2024/02/17 01:01:26;;;;;;;11.90;2.72;;;;;;;8.38;100.00;102571.38;5051346;28;20028;-77
2024/02/17 01:03:51;;;;;;;10.18;2.70;;;;;;;8.39;100.00;102573.94;5051296;28;20495;-78
2024/02/17 01:06:17;;;;;;;10.38;2.22;;;;;;;8.44;100.00;102579.88;5049828;28;20035;-78
2024/02/17 01:08:42;;;;;;;9.30;2.20;;;;;;;8.46;100.00;102579.81;5051558;28;20478;-78
2024/02/17 01:11:07;;;;;;;5.25;2.22;;;;;;;8.50;100.00;102589.31;5051290;28;20033;-78
2024/02/17 01:13:33;;;;;;;11.85;2.83;;;;;;;8.51;100.00;102590.16;5051012;28;20033;-78
2024/02/17 01:15:58;;;;;;;9.82;2.70;;;;;;;8.50;100.00;102588.47;5050743;28;20103;-78
2024/02/17 01:18:24;;;;;;;10.77;2.78;;;;;;;8.50;100.00;102599.94;5051062;28;20021;-78
2024/02/17 01:20:50;;;;;;;8.35;2.97;;;;;;;8.47;100.00;102600.94;5051426;28;20101;-78
2024/02/17 01:23:16;;;;;;;9.77;2.40;;;;;;;8.49;100.00;102605.31;5050810;28;20039;-83
2024/02/17 01:25:42;;;;;;;9.07;2.33;;;;;;;8.49;100.00;102607.97;5050633;28;20029;-78
2024/02/17 01:28:07;;;;;;;7.35;1.92;;;;;;;8.47;100.00;102600.94;5050647;28;20060;-78
2024/02/17 01:30:32;;;;;;;13.32;2.60;;;;;;;8.45;100.00;102610.78;5050338;28;20029;-78
2024/02/17 01:32:58;;;;;;;9.85;2.20;;;;;;;8.43;100.00;102614.41;5050176;28;20167;-78
2024/02/17 01:35:24;;;;;;;6.97;2.70;;;;;;;8.41;100.00;102611.00;5050815;28;20069;-78
2024/02/17 01:37:49;;;;;;;12.23;2.78;;;;;;;8.38;100.00;102619.97;5050942;28;20060;-78
2024/02/17 01:40:17;;;;;;;12.93;2.60;;;;;;;8.37;100.00;102620.91;5050970;28;20036;-78
2024/02/17 01:42:42;;;;;;;6.07;2.22;;;;;;;8.37;100.00;102620.06;5050655;28;20032;-77
2024/02/17 01:45:10;;;;;;;10.35;2.58;;;;;;;8.33;100.00;102619.38;5050474;28;20416;-78
2024/02/17 01:47:36;;;;;;;10.20;2.40;;;;;;;8.33;100.00;102627.31;5049528;28;20041;-78
2024/02/17 01:50:02;;;;;;;13.98;2.30;;;;;;;8.33;100.00;102626.44;5050701;28;20102;-80
2024/02/17 01:52:28;;;;;;;9.93;3.03;;;;;;;8.32;100.00;102632.72;5050704;28;20513;-78
2024/02/17 01:54:54;;;;;;;10.73;2.70;;;;;;;8.30;100.00;102641.59;5050537;28;20033;-78
2024/02/17 01:57:19;;;;;;;9.40;2.78;;;;;;;8.28;100.00;102650.56;5049194;28;20156;-77
2024/02/17 01:59:46;;;;;;;16.73;3.13;;;;;;;8.24;100.00;102654.31;5050440;28;20021;-77
2024/02/17 02:02:11;;;;;;;8.68;2.40;;;;;;;8.22;100.00;102656.19;5050540;28;20032;-78
2024/02/17 02:04:37;;;;;;;13.48;2.97;;;;;;;8.16;100.00;102659.16;5053349;28;20037;-78
2024/02/17 02:07:02;;;;;;;16.45;2.80;;;;;;;8.14;100.00;102661.91;5054450;28;20041;-77
2024/02/17 02:09:28;;;;;;;10.93;2.65;;;;;;;8.16;100.00;102657.34;5054218;28;20112;-78
2024/02/17 02:11:56;;;;;;;12.77;2.70;;;;;;;8.17;100.00;102659.09;5054148;28;20032;-77
2024/02/17 02:14:22;;;;;;;13.82;3.70;;;;;;;8.16;100.00;102667.97;5054192;28;20378;-77
2024/02/17 02:16:48;;;;;;;8.68;2.67;;;;;;;8.13;100.00;102678.72;5053646;28;20045;-78
2024/02/17 02:19:14;;;;;;;10.55;2.58;;;;;;;8.12;100.00;102677.00;5054441;28;20115;-77
2024/02/17 02:21:40;;;;;;;12.15;2.90;;;;;;;8.14;100.00;102687.56;5052779;28;20044;-77
2024/02/17 02:24:06;;;;;;;8.68;3.88;;;;;;;8.13;100.00;102681.38;5054090;28;20119;-77
2024/02/17 02:26:31;;;;;;;7.72;2.28;;;;;;;8.11;100.00;102686.75;5053728;28;20068;-78
2024/02/17 02:28:57;;;;;;;11.68;3.08;;;;;;;8.11;100.00;102686.75;5052732;28;20126;-77
2024/02/17 02:31:23;;;;;;;13.80;3.25;;;;;;;8.08;100.00;102694.03;5053540;28;20040;-78
2024/02/17 02:33:50;;;;;;;17.30;3.63;;;;;;;8.06;100.00;102693.22;5053365;28;20052;-78
2024/02/17 02:36:18;;;;;;;11.82;3.25;;;;;;;8.07;100.00;102697.59;5053792;28;20119;-78
2024/02/17 02:38:44;;;;;;;8.85;2.92;;;;;;;8.05;100.00;102700.34;5053668;28;20047;-78
2024/02/17 02:41:10;;;;;;;13.00;2.90;;;;;;;8.04;100.00;102711.00;5053644;28;20139;-77
2024/02/17 02:43:37;;;;;;;12.35;3.28;;;;;;;8.03;100.00;102711.94;5052057;28;20032;-78
2024/02/17 02:46:02;;;;;;;13.55;3.33;;;;;;;8.01;100.00;102708.53;5053202;28;20032;-77
2024/02/17 02:48:28;;;;;;;9.90;2.95;;;;;;;8.00;100.00;102707.69;5053498;28;20371;-81
2024/02/17 02:50:53;;;;;;;11.70;3.08;;;;;;;8.01;100.00;102716.47;5053707;28;20178;-77
2024/02/17 02:53:18;;;;;;;13.10;3.05;;;;;;;7.95;100.00;102715.81;5053800;28;20029;-77
2024/02/17 02:55:44;;;;;;;11.98;3.13;;;;;;;7.95;100.00;102713.16;5053138;28;20534;-77
2024/02/17 02:58:09;;;;;;;12.75;3.20;;;;;;;7.94;100.00;102716.78;5051886;28;20064;-77
2024/02/17 03:00:35;;;;;;;11.18;3.03;;;;;;;7.93;100.00;102720.34;5053314;28;20372;-77
2024/02/17 03:03:00;;;;;;;14.38;3.30;;;;;;;7.91;100.00;102724.88;5053295;28;20033;-77
2024/02/17 03:05:26;;;;;;;14.45;3.30;;;;;;;7.91;100.00;102727.53;5052267;28;20033;-79
2024/02/17 03:07:51;;;;;;;11.05;3.00;;;;;;;7.91;100.00;102730.19;5053123;28;20098;-77
2024/02/17 03:10:17;;;;;;;9.35;2.83;;;;;;;7.91;100.00;102726.66;5053028;28;20477;-77
2024/02/17 03:12:42;;;;;;;14.43;2.97;;;;;;;7.91;100.00;102731.97;5052662;28;20048;-77
2024/02/17 03:15:08;;;;;;;17.73;3.42;;;;;;;7.90;100.00;102727.63;5052003;28;20025;-77
2024/02/17 03:17:35;;;;;;;15.30;3.85;;;;;;;7.89;100.00;102734.69;5052792;28;20344;-77
2024/02/17 03:20:00;;;;;;;14.30;3.40;;;;;;;7.87;100.00;102749.81;5051979;28;20112;-77
2024/02/17 03:22:26;;;;;;;14.30;3.00;;;;;;;7.90;100.00;102752.31;5051574;28;20124;-77
2024/02/17 03:24:51;;;;;;;12.45;3.17;;;;;;;7.89;100.00;102747.94;5052885;28;20154;-77
2024/02/17 03:27:17;;;;;;;11.20;3.30;;;;;;;7.90;100.00;102743.53;5052903;28;20316;-76
2024/02/17 03:29:42;;;;;;;13.85;4.53;;;;;;;7.93;100.00;102756.63;5052764;28;20033;-76
2024/02/17 03:32:08;;;;;;;11.80;3.00;;;;;;;7.93;100.00;102754.81;5052751;28;20128;-79
2024/02/17 03:34:34;;;;;;;17.60;3.40;;;;;;;7.92;100.00;102757.53;5052765;28;20088;-81
2024/02/17 03:37:00;;;;;;;13.18;3.47;;;;;;;7.92;100.00;102757.53;5052797;28;20101;-79
2024/02/17 03:39:25;;;;;;;12.50;3.28;;;;;;;7.89;100.00;102761.19;5053087;28;20071;-78
2024/02/17 03:41:51;;;;;;;15.55;3.13;;;;;;;7.89;100.00;102760.34;5053115;28;20044;-75
2024/02/17 03:44:18;;;;;;;13.50;3.28;;;;;;;7.90;100.00;102759.41;5054073;28;20160;-75
2024/02/17 03:46:44;;;;;;;14.68;3.28;;;;;;;7.89;100.00;102765.66;5054711;28;20025;-76
2024/02/17 03:49:09;;;;;;;16.25;3.53;;;;;;;7.90;100.00;102762.06;5054859;28;20033;-75
2024/02/17 03:51:36;;;;;;;6.97;3.25;;;;;;;7.91;100.00;102775.25;5054751;28;20455;-78
2024/02/17 03:54:02;;;;;;;15.60;3.55;;;;;;;7.91;100.00;102775.25;5055198;28;20394;-75
2024/02/17 03:56:28;;;;;;;15.35;3.40;;;;;;;7.91;100.00;102777.03;5054695;28;20036;-75
2024/02/17 03:58:53;;;;;;;10.20;3.20;;;;;;;7.89;100.00;102779.75;5054638;28;20040;-77
2024/02/17 04:01:19;;;;;;;21.33;3.63;;;;;;;7.89;100.00;102786.84;5054903;28;20032;-76
2024/02/17 04:03:44;;;;;;;14.45;3.90;;;;;;;7.88;100.00;102785.13;5055041;28;20033;-75
2024/02/17 04:06:09;;;;;;;12.68;3.38;;;;;;;7.85;100.00;102782.63;5053313;28;20028;-75
2024/02/17 04:08:35;;;;;;;14.45;3.53;;;;;;;7.82;100.00;102796.88;5054515;28;20032;-76
2024/02/17 04:11:00;;;;;;;10.75;3.40;;;;;;;7.80;100.00;102793.44;5054004;28;20063;-75
2024/02/17 04:13:27;;;;;;;8.95;3.53;;;;;;;7.81;100.00;102803.13;5054354;28;20029;-75
2024/02/17 04:15:52;;;;;;;15.23;3.40;;;;;;;7.81;100.00;102799.59;5054307;28;20029;-76
2024/02/17 04:18:18;;;;;;;10.52;3.28;;;;;;;7.78;100.00;102808.56;5053000;28;20381;-76
2024/02/17 04:20:43;;;;;;;14.02;2.95;;;;;;;7.77;100.00;102807.69;5054139;28;20071;-76
2024/02/17 04:23:09;;;;;;;10.38;3.50;;;;;;;7.76;100.00;102819.25;5054147;28;20455;-75
2024/02/17 04:25:37;;;;;;;10.65;2.67;;;;;;;7.77;100.00;102826.25;5054059;28;20037;-76
2024/02/17 04:28:05;;;;;;;17.52;3.10;;;;;;;7.81;100.00;102824.31;5053684;28;20025;-76
2024/02/17 04:30:31;;;;;;;14.35;3.20;;;;;;;7.82;100.00;102835.78;5052854;28;20032;-75
2024/02/17 04:32:58;;;;;;;10.93;3.25;;;;;;;7.82;100.00;102835.78;5053737;28;20106;-76
2024/02/17 04:35:23;;;;;;;13.70;4.95;;;;;;;7.83;100.00;102827.75;5054519;28;20033;-76
2024/02/17 04:37:48;;;;;;;12.23;3.13;;;;;;;7.80;100.00;102830.53;5054363;28;20348;-76
2024/02/17 04:40:14;;;;;;;15.25;3.47;;;;;;;7.81;100.00;102836.69;5054389;28;20108;-76
2024/02/17 04:42:39;;;;;;;13.85;2.88;;;;;;;7.80;100.00;102841.16;5053828;28;20032;-75
2024/02/17 04:45:06;;;;;;;5.15;2.50;;;;;;;7.79;100.00;102849.16;5054268;28;20033;-74
2024/02/17 04:47:31;;;;;;;9.30;3.53;;;;;;;7.78;100.00;102856.28;5053723;28;20029;-76
2024/02/17 04:49:57;;;;;;;16.02;3.60;;;;;;;7.76;100.00;102855.47;5052888;28;20040;-76
2024/02/17 04:52:22;;;;;;;10.85;3.15;;;;;;;7.72;100.00;102849.47;5052959;28;20076;-75
2024/02/17 04:54:47;;;;;;;13.55;3.40;;;;;;;7.74;100.00;102860.84;5055311;28;20111;-75
2024/02/17 04:57:13;;;;;;;10.43;3.17;;;;;;;7.75;100.00;102859.91;5059844;28;20383;-77
2024/02/17 04:59:38;;;;;;;12.45;3.35;;;;;;;7.74;100.00;102863.50;5061471;28;20079;-75
2024/02/17 05:02:03;;;;;;;17.65;3.45;;;;;;;7.74;100.00;102867.94;5063822;28;20044;-74
2024/02/17 05:04:29;;;;;;;9.32;2.97;;;;;;;7.77;100.00;102863.34;5062457;28;20048;-75
2024/02/17 05:06:55;;;;;;;13.30;3.78;;;;;;;7.77;100.00;102868.66;5054652;28;20186;-76
2024/02/17 05:09:21;;;;;;;13.25;3.45;;;;;;;7.78;100.00;102872.19;5056402;28;20552;-76
2024/02/17 05:11:46;;;;;;;13.02;3.95;;;;;;;7.76;100.00;102880.19;5054481;28;20041;-79
2024/02/17 05:14:15;;;;;;;9.93;3.35;;;;;;;7.75;100.00;102889.06;5053750;28;20029;-75
2024/02/17 05:16:43;;;;;;;12.65;3.47;;;;;;;7.77;100.00;102883.69;5053306;28;20045;-75
2024/02/17 05:19:10;;;;;;;8.45;3.58;;;;;;;7.74;100.00;102884.69;5053376;28;20082;-76
2024/02/17 05:21:35;;;;;;;11.05;3.28;;;;;;;7.73;100.00;102893.59;5053367;28;20530;-75
2024/02/17 05:24:00;;;;;;;12.05;3.75;;;;;;;7.73;100.00;102898.88;5053173;28;20124;-76
2024/02/17 05:26:33;;;;;;;13.75;3.83;;;;;;;7.71;100.00;102897.22;5035945;28;20451;-75
2024/02/17 05:28:59;;;;;;;11.93;3.40;;;;;;;7.69;100.00;102907.91;5053503;28;20029;-76
2024/02/17 05:31:26;;;;;;;17.55;4.22;;;;;;;7.66;100.00;102910.69;5053165;28;20067;-75
2024/02/17 05:33:53;;;;;;;11.40;3.53;;;;;;;7.66;100.00;102913.34;5053137;28;20366;-76
2024/02/17 05:36:18;;;;;;;12.05;4.25;;;;;;;7.66;100.00;102918.63;5053893;28;20041;-74
2024/02/17 05:38:44;;;;;;;12.30;4.03;;;;;;;7.67;100.00;102922.13;5054488;28;20429;-76
2024/02/17 05:41:09;;;;;;;12.20;3.83;;;;;;;7.66;100.00;102931.00;5057085;28;20033;-76
2024/02/17 05:43:34;;;;;;;15.65;4.10;;;;;;;7.67;100.00;102932.75;5055976;28;20029;-76
2024/02/17 05:46:00;;;;;;;14.65;4.07;;;;;;;7.63;100.00;102934.69;5056997;28;20033;-76
2024/02/17 05:48:25;;;;;;;13.52;4.53;;;;;;;7.61;100.00;102930.38;5057124;28;20033;-76
2024/02/17 05:50:53;;;;;;;7.97;3.60;;;;;;;7.60;100.00;102929.53;5057268;28;20033;-77
2024/02/17 05:53:19;;;;;;;15.75;4.50;;;;;;;7.58;100.00;102928.72;5057074;28;20112;-76
2024/02/17 05:55:45;;;;;;;12.63;4.18;;;;;;;7.56;100.00;102930.56;5056890;28;20039;-76
2024/02/17 05:58:11;;;;;;;10.93;4.50;;;;;;;7.57;100.00;102932.31;5056805;28;20037;-75
2024/02/17 06:00:36;;;;;;;16.88;4.43;;;;;;;7.57;100.00;102941.09;5057543;28;20116;-74
2024/02/17 06:03:02;;;;;;;15.25;4.53;;;;;;;7.56;100.00;102936.72;5057474;28;20463;-75
2024/02/17 06:05:28;;;;;;;10.23;4.15;;;;;;;7.52;100.00;102953.69;5057199;28;20059;-75
2024/02/17 06:07:54;;;;;;;14.18;4.53;;;;;;;7.52;100.00;102955.47;5057262;28;20037;-77
2024/02/17 06:10:20;;;;;;;12.32;4.63;;;;;;;7.49;100.00;102960.91;5057552;28;20485;-76
2024/02/17 06:12:45;;;;;;;14.23;3.60;;;;;;;7.47;100.00;102968.94;5057203;28;20040;-77
2024/02/17 06:15:11;;;;;;;14.45;4.75;;;;;;;7.47;100.00;102968.94;5056999;28;20114;-76
2024/02/17 06:17:42;;;;;;;17.77;4.22;;;;;;;7.49;100.00;102975.00;5056876;28;20037;-75
2024/02/17 06:22:52;;;;;;;16.05;4.40;;;;;;;7.53;100.00;102973.09;5057218;28;19920;-75
2024/02/17 06:25:18;;;;;;;13.95;4.00;;;;;;;7.51;100.00;102981.13;5057419;28;20025;-76
2024/02/17 06:27:43;;;;;;;14.50;4.18;;;;;;;7.51;100.00;102985.53;5057081;28;20124;-76
2024/02/17 06:30:14;;;;;;;18.15;5.18;;;;;;;7.52;100.00;102997.84;5056979;28;20025;-76
2024/02/17 06:32:39;;;;;;;10.13;4.25;;;;;;;7.48;100.00;102994.50;5057430;28;20033;-76
2024/02/17 06:35:05;;;;;;;17.25;4.47;;;;;;;7.47;100.00;102994.56;5057213;28;20525;-76
2024/02/17 06:37:30;;;;;;;12.38;5.13;;;;;;;7.46;100.00;102992.84;5057091;28;20032;-75
2024/02/17 06:39:55;;;;;;;14.52;4.57;;;;;;;7.45;100.00;102994.63;5057640;28;20037;-76
2024/02/17 06:42:21;;;;;;;12.82;4.43;;;;;;;7.46;100.00;102991.03;5057022;28;20064;-75
2024/02/17 06:44:46;;;;;;;17.17;4.63;;;;;;;7.48;100.00;102999.78;5056413;28;20041;-75
2024/02/17 06:47:11;;;;;;;22.83;5.45;;;;;;;7.47;100.00;102994.56;5055811;28;20371;-75
2024/02/17 06:49:37;;;;;;;19.40;5.10;;;;;;;7.46;100.00;102998.97;5057095;28;20044;-76
2024/02/17 06:52:02;;;;;;;17.67;5.50;;;;;;;7.45;100.00;103002.56;5057314;28;20159;-77
2024/02/17 06:54:28;;;;;;;16.30;5.40;;;;;;;7.41;100.00;103004.47;5055597;28;20057;-76
2024/02/17 06:56:53;;;;;;;15.38;4.72;;;;;;;7.40;100.00;103008.06;5056141;28;20040;-76
2024/02/17 06:59:18;;;;;;;20.90;5.03;;;;;;;7.39;100.00;103009.00;5054921;28;20033;-76
2024/02/17 07:01:44;;;;;;;14.35;5.03;;;;;;;7.41;100.00;103019.53;5056364;28;20036;-75
2024/02/17 07:04:09;;;;;;;21.20;5.65;;;;;;;7.40;100.00;103021.31;5054315;28;20029;-75
2024/02/17 07:06:34;;;;;;;19.45;5.60;;;;;;;7.44;100.00;103029.97;5055564;28;20025;-76
2024/02/17 07:09:00;;;;;;;23.17;5.55;;;;;;;7.46;100.00;103037.88;5054455;28;20475;-76
2024/02/17 07:11:25;;;;;;;16.90;4.85;;;;;;;7.43;100.00;103038.00;5055991;28;20471;-75
2024/02/17 07:13:50;;;;;;;15.35;5.45;;;;;;;7.44;100.00;103037.06;5055410;28;20044;-76
2024/02/17 07:16:16;;;;;;;13.05;5.53;;;;;;;7.42;100.00;103045.09;5055353;28;20043;-76
2024/02/17 07:18:43;;;;;;;18.17;5.47;;;;;;;7.43;100.00;103051.22;5055724;28;20419;-76
2024/02/17 07:21:09;;;;;;;13.98;5.28;;;;;;;7.44;100.00;103059.13;5054161;28;20458;-76
2024/02/17 07:23:34;;;;;;;16.52;5.50;;;;;;;7.45;100.00;103063.50;5055209;28;20036;-76
2024/02/17 07:26:00;;;;;;;13.65;5.10;;;;;;;7.48;100.00;103070.44;5055523;28;20036;-77
2024/02/17 07:28:26;;;;;;;13.25;4.80;;;;;;;7.52;100.00;103074.69;5037403;28;20037;-76
2024/02/17 07:30:51;;;;;;;16.85;5.55;;;;;;;7.53;100.00;103071.13;5055153;28;20115;-74
2024/02/17 07:33:18;;;;;;;21.10;5.78;;;;;;;7.52;100.00;103072.03;5054547;28;20076;-75
2024/02/17 07:35:45;;;;;;;15.43;5.38;;;;;;;7.54;100.00;103071.06;5055527;28;20040;-76
2024/02/17 07:38:11;;;;;;;19.60;6.07;;;;;;;7.59;100.00;103084.09;5056049;28;20428;-77
2024/02/17 07:40:39;;;;;;;19.33;5.70;;;;;;;7.59;100.00;103095.56;5055090;28;20029;-76
2024/02/17 07:43:05;;;;;;;20.23;6.25;;;;;;;7.61;100.00;103090.19;5055802;28;20099;-76
2024/02/17 07:45:31;;;;;;;15.68;5.85;;;;;;;7.63;100.00;103093.66;5054939;28;20029;-76
2024/02/17 07:47:57;;;;;;;16.45;5.70;;;;;;;7.66;100.00;103096.16;5054316;28;20037;-75
2024/02/17 07:50:22;;;;;;;15.60;5.90;;;;;;;7.66;100.00;103090.88;5054794;28;20123;-76
2024/02/17 07:52:47;;;;;;;19.13;5.75;;;;;;;7.66;100.00;103100.59;5055336;28;20059;-76
2024/02/17 07:55:13;;;;;;;18.50;6.10;;;;;;;7.67;100.00;103105.81;5054777;28;20036;-77
2024/02/17 07:57:38;;;;;;;13.13;5.85;;;;;;;7.68;100.00;103112.00;5054648;28;20043;-75
2024/02/17 08:00:04;;;;;;;19.83;6.43;;;;;;;7.69;100.00;103113.75;5054396;28;20041;-76
2024/02/17 08:02:29;;;;;;;16.33;5.43;;;;;;;7.70;100.00;103110.13;5053703;28;20033;-76
2024/02/17 08:04:56;;;;;;;14.13;6.15;;;;;;;7.74;100.00;103119.69;5055317;28;20033;-77
2024/02/17 08:07:21;;;;;;;21.35;6.10;;;;;;;7.76;100.00;103117.81;5054403;28;20032;-76
2024/02/17 08:09:48;;;;;;;17.65;5.85;;;;;;;7.77;100.00;103127.50;5054727;28;20041;-76
2024/02/17 08:12:14;;;;;;;14.63;5.72;;;;;;;7.79;100.00;103122.16;5054325;28;20033;-80
2024/02/17 08:14:40;;;;;;;16.95;5.63;;;;;;;7.81;100.00;103130.88;5054358;28;20033;-75
2024/02/17 08:17:07;;;;;;;19.42;5.88;;;;;;;7.84;100.00;103115.72;5053114;28;20033;-76
2024/02/17 08:19:32;;;;;;;17.10;5.78;;;;;;;7.88;100.00;103124.41;5054212;28;20025;-78
2024/02/17 08:21:57;;;;;;;13.00;5.18;;;;;;;7.92;100.00;103124.19;5054253;28;20382;-76
2024/02/17 08:24:23;;;;;;;13.35;5.90;;;;;;;7.96;100.00;103122.28;5054185;28;20044;-75
2024/02/17 08:26:48;;;;;;;20.27;6.18;;;;;;;8.05;100.00;103134.28;5054607;28;20446;-76
2024/02/17 08:29:14;;;;;;;19.50;5.95;;;;;;;8.05;100.00;103137.81;5053670;28;20040;-78
2024/02/17 08:31:39;;;;;;;18.60;5.82;;;;;;;8.10;100.00;103142.91;5053983;28;20121;-77
2024/02/17 08:34:04;;;;;;;15.50;5.18;;;;;;;8.12;100.00;103152.53;5053878;28;20076;-78
2024/02/17 08:36:30;;;;;;;12.55;6.45;;;;;;;8.13;100.00;103156.03;5054658;28;20084;-75
2024/02/17 08:38:55;;;;;;;18.02;5.97;;;;;;;8.16;100.00;103158.53;5053812;28;20442;-76
2024/02/17 08:41:21;;;;;;;15.55;5.72;;;;;;;8.20;100.00;103164.59;5054080;28;20037;-77
2024/02/17 08:43:49;;;;;;;14.88;5.78;;;;;;;8.22;100.00;103165.38;5053961;28;20112;-74
2024/02/17 08:46:14;;;;;;;18.42;5.78;;;;;;;8.24;100.00;103167.03;5053713;28;20036;-79
2024/02/17 08:48:40;;;;;;;17.48;5.60;;;;;;;8.30;100.00;103165.91;5053853;28;20059;-76
2024/02/17 08:51:05;;;;;;;17.75;6.07;;;;;;;8.33;100.00;103165.78;5053414;28;20029;-77
2024/02/17 08:53:31;;;;;;;15.68;5.60;;;;;;;8.37;100.00;103179.75;5052448;28;20029;-77
2024/02/17 08:55:56;;;;;;;23.48;6.25;;;;;;;8.39;100.00;103173.47;5053421;28;20335;-77
2024/02/17 08:58:22;;;;;;;14.30;5.65;;;;;;;8.47;100.00;103167.84;5053268;28;20037;-75
2024/02/17 09:00:47;;;;;;;12.77;5.57;;;;;;;8.55;100.00;103168.34;5053053;28;20072;-76
2024/02/17 09:03:12;;;;;;;12.85;5.57;;;;;;;8.62;100.00;103180.41;5053258;28;20040;-77
2024/02/17 09:05:38;;;;;;;16.48;5.82;;;;;;;8.72;100.00;103172.03;5053058;28;20482;-76
2024/02/17 09:08:04;;;;;;;15.57;6.43;;;;;;;8.82;100.00;103166.25;5053227;28;20104;-76
2024/02/17 09:10:29;;;;;;;18.20;5.93;;;;;;;8.90;100.00;103176.50;5052313;28;20028;-77
2024/02/17 09:12:54;;;;;;;11.98;6.18;;;;;;;8.97;100.00;103179.72;5052276;28;20033;-78
2024/02/17 09:15:20;;;;;;;19.02;5.90;;;;;;;9.04;100.00;103180.31;5052754;28;20029;-78
2024/02/17 09:17:47;;;;;;;11.95;5.63;;;;;;;9.08;100.00;103188.06;5053305;28;20115;-77
2024/02/17 09:20:12;;;;;;;15.35;6.25;;;;;;;9.13;100.00;103180.72;5052220;28;20564;-76
2024/02/17 09:22:38;;;;;;;15.20;5.72;;;;;;;9.15;100.00;103184.19;5052751;28;20108;-76
2024/02/17 09:25:04;;;;;;;15.35;5.43;;;;;;;9.23;100.00;103190.94;5053081;28;20061;-77
2024/02/17 09:27:30;;;;;;;21.85;5.43;;;;;;;9.21;100.00;103191.03;5052800;28;20048;-77
2024/02/17 09:29:55;;;;;;;17.50;5.13;;;;;;;9.19;100.00;103190.22;5052767;28;20116;-76
2024/02/17 09:32:20;;;;;;;10.57;5.55;;;;;;;9.22;100.00;103186.56;5051404;28;20037;-77
2024/02/17 09:34:46;;;;;;;15.40;5.10;;;;;;;9.23;100.00;103191.78;5052567;28;20053;-76
2024/02/17 09:37:12;;;;;;;14.90;5.20;;;;;;;9.29;100.00;103201.28;5053383;28;20153;-76
2024/02/17 09:39:41;;;;;;;19.45;5.70;;;;;;;9.32;100.00;103201.97;5052601;28;20033;-75
2024/02/17 09:42:07;;;;;;;14.70;5.50;;;;;;;9.31;100.00;103196.75;5053174;28;20501;-76
2024/02/17 09:44:32;;;;;;;11.13;5.22;;;;;;;9.31;100.00;103192.28;5052693;28;20036;-76
2024/02/17 09:46:58;;;;;;;12.43;5.60;;;;;;;9.37;100.00;103203.56;5052576;28;20619;-76
2024/02/17 09:49:25;;;;;;;15.23;5.32;;;;;;;9.40;100.00;103203.41;5053182;28;20044;-75
2024/02/17 09:51:51;;;;;;;16.38;5.35;;;;;;;9.42;100.00;103197.09;5052698;28;20485;-76
2024/02/17 09:54:20;;;;;;;13.15;5.55;;;;;;;9.48;100.00;103193.25;5052257;28;20029;-76
2024/02/17 09:56:48;;;;;;;15.15;5.80;;;;;;;9.51;100.00;103198.44;5052349;28;20072;-77
2024/02/17 09:59:13;;;;;;;19.33;5.60;;;;;;;9.58;100.00;103207.81;5052722;28;20033;-76
2024/02/17 10:01:39;;;;;;;13.77;5.45;;;;;;;9.64;100.00;103201.34;5052436;28;20051;-75
2024/02/17 10:04:06;;;;;;;12.63;5.55;;;;;;;9.70;100.00;103201.03;5052340;28;20455;-75
2024/02/17 10:06:31;;;;;;;10.35;5.38;;;;;;;9.76;100.00;103203.41;5052228;28;20033;-76
2024/02/17 10:08:57;;;;;;;14.30;5.72;;;;;;;9.81;100.00;103200.53;5051492;28;20037;-74
2024/02/17 10:11:23;;;;;;;13.85;6.25;;;;;;;9.85;100.00;103202.09;5052667;28;20383;-76
2024/02/17 10:14:01;;;;;;;9.00;5.22;;;;;;;9.94;100.00;103199.00;5052674;28;20329;-76
2024/02/17 10:16:31;;;;;;;9.60;5.47;;;;;;;10.01;100.00;103213.69;5052939;28;20108;-77
2024/02/17 10:19:03;;;;;;;15.82;5.80;;;;;;;9.99;100.00;103220.03;5053285;28;20086;-78
2024/02/17 10:21:29;;;;;;;11.80;4.93;;;;;;;9.97;100.00;103217.44;5051440;28;20037;-75
2024/02/17 10:23:54;;;;;;;13.70;5.43;;;;;;;9.97;100.00;103227.22;5052584;28;20071;-77
2024/02/17 10:26:20;;;;;;;13.15;5.90;;;;;;;10.00;100.00;103232.38;5056396;28;20033;-75
2024/02/17 10:28:56;;;;;;;10.10;5.32;;;;;;;10.00;100.00;103227.06;5056465;28;20463;-75
2024/02/17 10:31:22;;;;;;;9.90;5.45;;;;;;;9.99;100.00;103231.53;5056213;28;20086;-76
2024/02/17 10:33:49;;;;;;;12.23;5.57;;;;;;;10.09;100.00;103231.06;5055986;28;20501;-75
2024/02/17 10:36:16;;;;;;;10.80;5.15;;;;;;;10.15;100.00;103231.63;5056850;28;20109;-76
2024/02/17 10:38:41;;;;;;;10.48;4.80;;;;;;;10.17;100.00;103240.38;5056287;28;20052;-75
2024/02/17 10:41:08;;;;;;;11.27;5.15;;;;;;;10.27;100.00;103243.44;5055820;28;20513;-77
2024/02/17 10:43:38;;;;;;;10.52;5.15;;;;;;;10.33;100.00;103245.81;5055700;28;20032;-76
2024/02/17 10:46:24;;;;;;;15.93;5.15;;;;;;;10.43;100.00;103242.66;5054722;28;20033;-76
2024/02/17 10:49:07;;;;;;;11.82;4.35;;;;;;;10.48;100.00;103244.16;5056408;28;20163;-76
2024/02/17 10:51:39;;;;;;;9.98;4.70;;;;;;;10.61;100.00;103249.69;5055949;28;20029;-77
2024/02/17 10:54:08;;;;;;;11.00;4.93;;;;;;;10.69;100.00;103250.16;5056182;28;20029;-77
2024/02/17 10:56:34;;;;;;;10.05;4.65;;;;;;;10.73;100.00;103249.06;5055841;28;20033;-75
2024/02/17 10:59:03;;;;;;;7.68;4.07;;;;;;;10.82;100.00;103257.50;5055894;28;20039;-76
2024/02/17 11:01:29;;;;;;;7.78;4.85;;;;;;;10.86;100.00;103265.22;5055515;28;20024;-76
2024/02/17 11:03:57;;;;;;;9.32;4.18;;;;;;;10.87;100.00;103272.28;5055980;28;20410;-79
2024/02/17 11:06:25;;;;;;;9.15;4.43;;;;;;;10.95;100.00;103274.53;5056742;28;20029;-76
2024/02/17 11:08:51;;;;;;;11.73;4.40;;;;;;;10.93;100.00;103276.44;5055402;28;20466;-75
2024/02/17 11:11:23;;;;;;;12.07;4.53;;;;;;;10.91;100.00;103287.16;5054606;28;20032;-76
2024/02/17 11:13:50;;;;;;;13.00;4.53;;;;;;;10.90;100.00;103288.09;5055561;28;20029;-76
2024/02/17 11:16:17;;;;;;;7.97;4.40;;;;;;;10.94;100.00;103283.47;5055522;28;20060;-74